Pearl Beach, Michigan
Current Conditions -  °F | °C
As of 1:55 PM on Wednesday 26 Nov 2014 (Local Time) from KMTC Reporting Station
Overcast Overcast  
Wind Chill: 30°   Ceiling: 3300
Heat Index: 34°   Visibility: 10mi
Dew Point: 23°   Wind: 5mph
Humidity: 64%   Direction: 90°E
Pressure: 30.09"   Gusts: NA
Location:  42.6418°N, 82.5677°W
Report Text: KMTC 261855Z 09004KT 10SM OVC033 01/M05 A3009 RMK SLP201 T00131048
Loading
Personal Weather Stations






























Interactive Weather Map New forecast layout! Learn more

10-Day Weather Forecast

Advertisements
Track Severe Weather on mobile